Sara — WDI5167 — position and weather

sailwx.info

Track history (hours):
 
Tides and Currents Weather Stations Pressure Air Temp Water Temp Dewpoint Dewpoint Depression Visibility Wind Speed Wind Dir Waves Ship Positions

Sara

Owner: Miami River Towing Company Inc., Miami, FL. More information available from US FCC via Universal Licensing System and Coast Guard Vessel Documentation Center.

Last reported at 2018-Aug-17 04:13 UTC. Time now 2018-Aug-17 11:41 UTC.
Position N 25°48' W 080°15'.

Length 16 m; draft 2 m.

Type: Towing. MMSI: 367705810.

Date/timePositionNaut miles runAvg speedWind from/ knotsBaromVisibWave heightAir tempDewpointWater temp
2018-Aug-17 04:13N 25°48' W 080°15'0 0.0
2018-Aug-17 04:00N 25°48' W 080°15'1 1.5
2018-Aug-17 03:31N 25°48' W 080°14'1 2.7
2018-Aug-17 03:00N 25°47' W 080°13'1 2.6
2018-Aug-17 02:30N 25°46' W 080°12'1 2.6
2018-Aug-17 02:01N 25°46' W 080°10'3 5.5
2018-Aug-17 01:30N 25°47' W 080°13'2 3.4
2018-Aug-17 01:00N 25°48' W 080°15'0 0.0
2018-Aug-17 00:30N 25°48' W 080°15'0 0.0
2018-Aug-17 00:00N 25°48' W 080°15'0 0.0
2018-Aug-16 23:30N 25°48' W 080°15'0 0.0
2018-Aug-16 23:00N 25°48' W 080°15'0 0.0
2018-Aug-16 07:18N 25°48' W 080°15'0 0.0
2018-Aug-16 07:01N 25°48' W 080°15'3 5.1
2018-Aug-16 06:30N 25°47' W 080°13'2 3.1
2018-Aug-16 06:00N 25°46' W 080°11'1 2.2
2018-Aug-16 05:30N 25°46' W 080°12'1 2.8
2018-Aug-16 05:01N 25°47' W 080°13'1 2.3
2018-Aug-16 04:31N 25°48' W 080°15'1 1.1
2018-Aug-16 04:01N 25°48' W 080°15'0 0.0
2018-Aug-16 03:31N 25°48' W 080°15'0 0.0
2018-Aug-16 03:01N 25°48' W 080°15'0 0.0
2018-Aug-15 22:25N 25°48' W 080°15'0 0.0
2018-Aug-15 21:30N 25°48' W 080°15'0 0.0
2018-Aug-15 21:00N 25°48' W 080°15'0 0.0
2018-Aug-15 20:30N 25°48' W 080°15'0 0.0
2018-Aug-15 20:00N 25°48' W 080°15'0 0.0
2018-Aug-15 19:30N 25°48' W 080°15'0 0.0
2018-Aug-15 19:00N 25°48' W 080°15'0 0.0
2018-Aug-15 18:30N 25°48' W 080°15'0 0.0
2018-Aug-15 18:00N 25°48' W 080°15'0 0.0
2018-Aug-15 17:30N 25°48' W 080°15'0 0.0
2018-Aug-15 17:00N 25°48' W 080°15'0 0.0
2018-Aug-15 16:30N 25°48' W 080°15'0 0.0
2018-Aug-15 16:00N 25°48' W 080°15'0 0.0
2018-Aug-15 15:30N 25°48' W 080°15'0 0.0
2018-Aug-15 15:00N 25°48' W 080°15'0 0.0
2018-Aug-15 14:30N 25°48' W 080°15'0 0.0
2018-Aug-15 14:00N 25°48' W 080°15'0 0.0
2018-Aug-15 13:30N 25°48' W 080°15'0 0.0
2018-Aug-15 13:00N 25°48' W 080°15'0 0.0
2018-Aug-14 20:32N 25°48' W 080°15'0 0.0
2018-Aug-14 20:30N 25°48' W 080°15'0 0.0
2018-Aug-14 20:00N 25°48' W 080°15'0 0.0
2018-Aug-14 19:30N 25°48' W 080°15'0 0.0
2018-Aug-14 19:00N 25°48' W 080°15'0 0.0
2018-Aug-14 18:30N 25°48' W 080°15'0 0.0
2018-Aug-14 18:01N 25°48' W 080°15'0 0.0
2018-Aug-14 17:30N 25°48' W 080°15'0 0.0
2018-Aug-14 17:00N 25°48' W 080°15'0 0.0
2018-Aug-14 16:30N 25°48' W 080°15'0 0.0
2018-Aug-14 16:01N 25°48' W 080°15'0 0.0
2018-Aug-14 15:31N 25°48' W 080°15'0 0.0
2018-Aug-14 15:01N 25°48' W 080°15'0 0.0
2018-Aug-14 14:31N 25°48' W 080°15'0 0.0
2018-Aug-14 14:00N 25°48' W 080°15'0 0.0
2018-Aug-14 13:31N 25°48' W 080°15'0 0.0
2018-Aug-14 13:00N 25°48' W 080°15'0 0.0
2018-Aug-14 12:31N 25°48' W 080°15'0 0.0
2018-Aug-14 12:00N 25°48' W 080°15'0 0.0
2018-Aug-13 16:25N 25°48' W 080°15'0 0.0
2018-Aug-13 16:00N 25°48' W 080°15'0 0.0
2018-Aug-13 15:30N 25°48' W 080°15'0 0.0
2018-Aug-13 15:00N 25°48' W 080°15'0 0.0
2018-Aug-13 14:30N 25°48' W 080°15'0 1.0
2018-Aug-13 14:00N 25°48' W 080°15'1 2.3
2018-Aug-13 13:30N 25°47' W 080°13'1 2.7
2018-Aug-13 13:00N 25°47' W 080°12'1 1.8
2018-Aug-13 12:30N 25°46' W 080°11'1 1.3
2018-Aug-13 12:00N 25°46' W 080°10'2 4.9
2018-Aug-13 11:30N 25°47' W 080°13'2 4.1
2018-Aug-13 11:00N 25°48' W 080°15'0 0.0
2018-Aug-13 10:30N 25°48' W 080°15'0 0.0
2018-Aug-13 10:00N 25°48' W 080°15'0 0.0
2018-Aug-12 05:44N 25°48' W 080°15'0 0.3
2018-Aug-12 05:30N 25°48' W 080°15'3 5.5
2018-Aug-12 05:00N 25°47' W 080°12'1 2.8
2018-Aug-12 04:30N 25°46' W 080°11'1 2.1
2018-Aug-12 04:00N 25°46' W 080°12'1 2.7
2018-Aug-12 03:30N 25°47' W 080°13'1 2.4
2018-Aug-12 03:00N 25°48' W 080°15'1 1.2
2018-Aug-12 02:30N 25°48' W 080°15'0 0.0
2018-Aug-12 02:00N 25°48' W 080°15'0 0.0
2018-Aug-11 17:55N 25°48' W 080°15'1 2.3
2018-Aug-11 17:30N 25°47' W 080°14'2 4.8
2018-Aug-11 17:00N 25°46' W 080°12'1 1.1
2018-Aug-11 16:30N 25°46' W 080°11'1 2.2
2018-Aug-11 16:01N 25°47' W 080°12'1 2.7
2018-Aug-11 15:30N 25°47' W 080°14'1 2.2
2018-Aug-11 15:00N 25°48' W 080°15'0 0.1
2018-Aug-11 14:30N 25°48' W 080°15'1 2.1
2018-Aug-11 14:00N 25°47' W 080°14'1 2.6
2018-Aug-11 13:30N 25°47' W 080°12'1 2.2
2018-Aug-11 13:00N 25°46' W 080°11'1 1.9
2018-Aug-11 12:30N 25°46' W 080°10'3 5.0
2018-Aug-11 12:00N 25°47' W 080°13'2 4.3
2018-Aug-11 11:30N 25°48' W 080°15'0 0.0
2018-Aug-11 11:00N 25°48' W 080°15'0 0.0
2018-Aug-10 15:58N 25°48' W 080°15'0 0.0
2018-Aug-10 15:30N 25°48' W 080°15'0 0.0
2018-Aug-10 15:00N 25°48' W 080°15'0 0.0
2018-Aug-10 14:30N 25°48' W 080°15'0 0.0
2018-Aug-10 14:01N 25°48' W 080°15'0 0.0
2018-Aug-10 13:30N 25°48' W 080°15'0 0.0
2018-Aug-10 13:00N 25°48' W 080°15'0 0.0
2018-Aug-10 02:31N 25°48' W 080°15'0 0.0
2018-Aug-10 02:30N 25°48' W 080°15'0 0.7
2018-Aug-10 02:00N 25°48' W 080°15'1 1.5
2018-Aug-10 01:30N 25°47' W 080°14'1 1.9
2018-Aug-10 01:00N 25°47' W 080°13'1 2.2
2018-Aug-10 00:30N 25°46' W 080°12'1 2.0
2018-Aug-10 00:00N 25°46' W 080°11'1 1.0
2018-Aug-09 23:30N 25°46' W 080°11'3 5.2
2018-Aug-09 23:00N 25°47' W 080°14'1 2.2
2018-Aug-09 22:30N 25°48' W 080°15'0 0.0
2018-Aug-09 21:56N 25°48' W 080°15'0 0.0
2018-Aug-09 21:30N 25°48' W 080°15'0 0.0
2018-Aug-09 13:56N 25°48' W 080°15'0 0.0
2018-Aug-09 13:31N 25°48' W 080°15'0 0.1
2018-Aug-09 13:00N 25°48' W 080°15'3 5.2
2018-Aug-09 12:31N 25°47' W 080°12'2 3.2
2018-Aug-09 12:00N 25°46' W 080°11'1 2.2
2018-Aug-09 11:31N 25°46' W 080°12'1 2.5
2018-Aug-09 11:01N 25°47' W 080°13'1 2.4
2018-Aug-09 10:30N 25°47' W 080°14'1 1.7
2018-Aug-09 10:00N 25°48' W 080°15'0 0.0
2018-Aug-09 09:30N 25°48' W 080°15'0 0.0
2018-Aug-08 20:57N 25°48' W 080°15'0 0.2
2018-Aug-08 20:30N 25°48' W 080°15'1 2.2
2018-Aug-08 20:00N 25°47' W 080°14'1 2.7
2018-Aug-08 19:30N 25°47' W 080°13'1 2.3
2018-Aug-08 19:00N 25°46' W 080°11'1 2.0
2018-Aug-08 18:30N 25°46' W 080°10'2 4.3
2018-Aug-08 18:01N 25°47' W 080°13'2 4.4
2018-Aug-08 17:30N 25°48' W 080°15'0 0.7
2018-Aug-08 17:00N 25°48' W 080°15'0 0.0
2018-Aug-08 16:29N 25°48' W 080°15'0 0.0
2018-Aug-08 16:00N 25°48' W 080°15'0 0.0
2018-Aug-08 15:30N 25°48' W 080°15'0 0.0
2018-Aug-08 15:00N 25°48' W 080°15'0 0.0
2018-Aug-08 14:30N 25°48' W 080°15'0 0.0
2018-Aug-08 14:00N 25°48' W 080°15'0 0.0
2018-Aug-08 13:30N 25°48' W 080°15'0 0.0
2018-Aug-08 13:00N 25°48' W 080°15'0 0.0
2018-Aug-08 12:30N 25°48' W 080°15'0 0.0
2018-Aug-08 12:00N 25°48' W 080°15'0 0.0
2018-Aug-07 19:50N 25°48' W 080°15'0 0.0
2018-Aug-07 19:30N 25°48' W 080°15'0 0.0
2018-Aug-07 19:00N 25°48' W 080°15'0 0.0
2018-Aug-07 18:30N 25°48' W 080°15'0 0.0
2018-Aug-07 18:00N 25°48' W 080°15'0 0.0
2018-Aug-07 17:30N 25°48' W 080°15'0 0.0
2018-Aug-07 17:00N 25°48' W 080°15'0 0.7
2018-Aug-07 16:30N 25°48' W 080°15'0 0.0
2018-Aug-07 16:00N 25°48' W 080°15'0 0.0
2018-Aug-07 15:30N 25°48' W 080°15'0 0.0
2018-Aug-07 15:01N 25°48' W 080°15'0 0.0
2018-Aug-07 14:30N 25°48' W 080°15'0 0.0
2018-Aug-07 14:00N 25°48' W 080°15'0 0.0
2018-Aug-07 13:30N 25°48' W 080°15'0 0.1
2018-Aug-07 13:00N 25°48' W 080°15'0 0.5
2018-Aug-07 12:30N 25°48' W 080°15'  
Track history (hours):
 
Tides and Currents Weather Stations Pressure Air Temp Water Temp Dewpoint Dewpoint Depression Visibility Wind Speed Wind Dir Waves Ship Positions

Sara

Owner: Miami River Towing Company Inc., Miami, FL. More information available from US FCC via Universal Licensing System and Coast Guard Vessel Documentation Center.

Last reported at 2018-Aug-17 04:13 UTC. Time now 2018-Aug-17 11:41 UTC.
Position N 25°48' W 080°15'.

Length 16 m; draft 2 m.

Type: Towing. MMSI: 367705810.

Date/timePositionNaut miles runAvg speedWind from/ knotsBaromVisibWave heightAir tempDewpointWater temp
2018-Aug-17 04:13N 25°48' W 080°15'0 0.0
2018-Aug-17 04:00N 25°48' W 080°15'1 1.5
2018-Aug-17 03:31N 25°48' W 080°14'1 2.7
2018-Aug-17 03:00N 25°47' W 080°13'1 2.6
2018-Aug-17 02:30N 25°46' W 080°12'1 2.6
2018-Aug-17 02:01N 25°46' W 080°10'3 5.5
2018-Aug-17 01:30N 25°47' W 080°13'2 3.4
2018-Aug-17 01:00N 25°48' W 080°15'0 0.0
2018-Aug-17 00:30N 25°48' W 080°15'0 0.0
2018-Aug-17 00:00N 25°48' W 080°15'0 0.0
2018-Aug-16 23:30N 25°48' W 080°15'0 0.0
2018-Aug-16 23:00N 25°48' W 080°15'0 0.0
2018-Aug-16 07:18N 25°48' W 080°15'0 0.0
2018-Aug-16 07:01N 25°48' W 080°15'3 5.1
2018-Aug-16 06:30N 25°47' W 080°13'2 3.1
2018-Aug-16 06:00N 25°46' W 080°11'1 2.2
2018-Aug-16 05:30N 25°46' W 080°12'1 2.8
2018-Aug-16 05:01N 25°47' W 080°13'1 2.3
2018-Aug-16 04:31N 25°48' W 080°15'1 1.1
2018-Aug-16 04:01N 25°48' W 080°15'0 0.0
2018-Aug-16 03:31N 25°48' W 080°15'0 0.0
2018-Aug-16 03:01N 25°48' W 080°15'0 0.0
2018-Aug-15 22:25N 25°48' W 080°15'0 0.0
2018-Aug-15 21:30N 25°48' W 080°15'0 0.0
2018-Aug-15 21:00N 25°48' W 080°15'0 0.0
2018-Aug-15 20:30N 25°48' W 080°15'0 0.0
2018-Aug-15 20:00N 25°48' W 080°15'0 0.0
2018-Aug-15 19:30N 25°48' W 080°15'0 0.0
2018-Aug-15 19:00N 25°48' W 080°15'0 0.0
2018-Aug-15 18:30N 25°48' W 080°15'0 0.0
2018-Aug-15 18:00N 25°48' W 080°15'0 0.0
2018-Aug-15 17:30N 25°48' W 080°15'0 0.0
2018-Aug-15 17:00N 25°48' W 080°15'0 0.0
2018-Aug-15 16:30N 25°48' W 080°15'0 0.0
2018-Aug-15 16:00N 25°48' W 080°15'0 0.0
2018-Aug-15 15:30N 25°48' W 080°15'0 0.0
2018-Aug-15 15:00N 25°48' W 080°15'0 0.0
2018-Aug-15 14:30N 25°48' W 080°15'0 0.0
2018-Aug-15 14:00N 25°48' W 080°15'0 0.0
2018-Aug-15 13:30N 25°48' W 080°15'0 0.0
2018-Aug-15 13:00N 25°48' W 080°15'0 0.0
2018-Aug-14 20:32N 25°48' W 080°15'0 0.0
2018-Aug-14 20:30N 25°48' W 080°15'0 0.0
2018-Aug-14 20:00N 25°48' W 080°15'0 0.0
2018-Aug-14 19:30N 25°48' W 080°15'0 0.0
2018-Aug-14 19:00N 25°48' W 080°15'0 0.0
2018-Aug-14 18:30N 25°48' W 080°15'0 0.0
2018-Aug-14 18:01N 25°48' W 080°15'0 0.0
2018-Aug-14 17:30N 25°48' W 080°15'0 0.0
2018-Aug-14 17:00N 25°48' W 080°15'0 0.0
2018-Aug-14 16:30N 25°48' W 080°15'0 0.0
2018-Aug-14 16:01N 25°48' W 080°15'0 0.0
2018-Aug-14 15:31N 25°48' W 080°15'0 0.0
2018-Aug-14 15:01N 25°48' W 080°15'0 0.0
2018-Aug-14 14:31N 25°48' W 080°15'0 0.0
2018-Aug-14 14:00N 25°48' W 080°15'0 0.0
2018-Aug-14 13:31N 25°48' W 080°15'0 0.0
2018-Aug-14 13:00N 25°48' W 080°15'0 0.0
2018-Aug-14 12:31N 25°48' W 080°15'0 0.0
2018-Aug-14 12:00N 25°48' W 080°15'0 0.0
2018-Aug-13 16:25N 25°48' W 080°15'0 0.0
2018-Aug-13 16:00N 25°48' W 080°15'0 0.0
2018-Aug-13 15:30N 25°48' W 080°15'0 0.0
2018-Aug-13 15:00N 25°48' W 080°15'0 0.0
2018-Aug-13 14:30N 25°48' W 080°15'0 1.0
2018-Aug-13 14:00N 25°48' W 080°15'1 2.3
2018-Aug-13 13:30N 25°47' W 080°13'1 2.7
2018-Aug-13 13:00N 25°47' W 080°12'1 1.8
2018-Aug-13 12:30N 25°46' W 080°11'1 1.3
2018-Aug-13 12:00N 25°46' W 080°10'2 4.9
2018-Aug-13 11:30N 25°47' W 080°13'2 4.1
2018-Aug-13 11:00N 25°48' W 080°15'0 0.0
2018-Aug-13 10:30N 25°48' W 080°15'0 0.0
2018-Aug-13 10:00N 25°48' W 080°15'0 0.0
2018-Aug-12 05:44N 25°48' W 080°15'0 0.3
2018-Aug-12 05:30N 25°48' W 080°15'3 5.5
2018-Aug-12 05:00N 25°47' W 080°12'1 2.8
2018-Aug-12 04:30N 25°46' W 080°11'1 2.1
2018-Aug-12 04:00N 25°46' W 080°12'1 2.7
2018-Aug-12 03:30N 25°47' W 080°13'1 2.4
2018-Aug-12 03:00N 25°48' W 080°15'1 1.2
2018-Aug-12 02:30N 25°48' W 080°15'0 0.0
2018-Aug-12 02:00N 25°48' W 080°15'0 0.0
2018-Aug-11 17:55N 25°48' W 080°15'1 2.3
2018-Aug-11 17:30N 25°47' W 080°14'2 4.8
2018-Aug-11 17:00N 25°46' W 080°12'1 1.1
2018-Aug-11 16:30N 25°46' W 080°11'1 2.2
2018-Aug-11 16:01N 25°47' W 080°12'1 2.7
2018-Aug-11 15:30N 25°47' W 080°14'1 2.2
2018-Aug-11 15:00N 25°48' W 080°15'0 0.1
2018-Aug-11 14:30N 25°48' W 080°15'1 2.1
2018-Aug-11 14:00N 25°47' W 080°14'1 2.6
2018-Aug-11 13:30N 25°47' W 080°12'1 2.2
2018-Aug-11 13:00N 25°46' W 080°11'1 1.9
2018-Aug-11 12:30N 25°46' W 080°10'3 5.0
2018-Aug-11 12:00N 25°47' W 080°13'2 4.3
2018-Aug-11 11:30N 25°48' W 080°15'0 0.0
2018-Aug-11 11:00N 25°48' W 080°15'0 0.0
2018-Aug-10 15:58N 25°48' W 080°15'0 0.0
2018-Aug-10 15:30N 25°48' W 080°15'0 0.0
2018-Aug-10 15:00N 25°48' W 080°15'0 0.0
2018-Aug-10 14:30N 25°48' W 080°15'0 0.0
2018-Aug-10 14:01N 25°48' W 080°15'0 0.0
2018-Aug-10 13:30N 25°48' W 080°15'0 0.0
2018-Aug-10 13:00N 25°48' W 080°15'0 0.0
2018-Aug-10 02:31N 25°48' W 080°15'0 0.0
2018-Aug-10 02:30N 25°48' W 080°15'0 0.7
2018-Aug-10 02:00N 25°48' W 080°15'1 1.5
2018-Aug-10 01:30N 25°47' W 080°14'1 1.9
2018-Aug-10 01:00N 25°47' W 080°13'1 2.2
2018-Aug-10 00:30N 25°46' W 080°12'1 2.0
2018-Aug-10 00:00N 25°46' W 080°11'1 1.0
2018-Aug-09 23:30N 25°46' W 080°11'3 5.2
2018-Aug-09 23:00N 25°47' W 080°14'1 2.2
2018-Aug-09 22:30N 25°48' W 080°15'0 0.0
2018-Aug-09 21:56N 25°48' W 080°15'0 0.0
2018-Aug-09 21:30N 25°48' W 080°15'0 0.0
2018-Aug-09 13:56N 25°48' W 080°15'0 0.0
2018-Aug-09 13:31N 25°48' W 080°15'0 0.1
2018-Aug-09 13:00N 25°48' W 080°15'3 5.2
2018-Aug-09 12:31N 25°47' W 080°12'2 3.2
2018-Aug-09 12:00N 25°46' W 080°11'1 2.2
2018-Aug-09 11:31N 25°46' W 080°12'1 2.5
2018-Aug-09 11:01N 25°47' W 080°13'1 2.4
2018-Aug-09 10:30N 25°47' W 080°14'1 1.7
2018-Aug-09 10:00N 25°48' W 080°15'0 0.0
2018-Aug-09 09:30N 25°48' W 080°15'0 0.0
2018-Aug-08 20:57N 25°48' W 080°15'0 0.2
2018-Aug-08 20:30N 25°48' W 080°15'1 2.2
2018-Aug-08 20:00N 25°47' W 080°14'1 2.7
2018-Aug-08 19:30N 25°47' W 080°13'1 2.3
2018-Aug-08 19:00N 25°46' W 080°11'1 2.0
2018-Aug-08 18:30N 25°46' W 080°10'2 4.3
2018-Aug-08 18:01N 25°47' W 080°13'2 4.4
2018-Aug-08 17:30N 25°48' W 080°15'0 0.7
2018-Aug-08 17:00N 25°48' W 080°15'0 0.0
2018-Aug-08 16:29N 25°48' W 080°15'0 0.0
2018-Aug-08 16:00N 25°48' W 080°15'0 0.0
2018-Aug-08 15:30N 25°48' W 080°15'0 0.0
2018-Aug-08 15:00N 25°48' W 080°15'0 0.0
2018-Aug-08 14:30N 25°48' W 080°15'0 0.0
2018-Aug-08 14:00N 25°48' W 080°15'0 0.0
2018-Aug-08 13:30N 25°48' W 080°15'0 0.0
2018-Aug-08 13:00N 25°48' W 080°15'0 0.0
2018-Aug-08 12:30N 25°48' W 080°15'0 0.0
2018-Aug-08 12:00N 25°48' W 080°15'0 0.0
2018-Aug-07 19:50N 25°48' W 080°15'0 0.0
2018-Aug-07 19:30N 25°48' W 080°15'0 0.0
2018-Aug-07 19:00N 25°48' W 080°15'0 0.0
2018-Aug-07 18:30N 25°48' W 080°15'0 0.0
2018-Aug-07 18:00N 25°48' W 080°15'0 0.0
2018-Aug-07 17:30N 25°48' W 080°15'0 0.0
2018-Aug-07 17:00N 25°48' W 080°15'0 0.7
2018-Aug-07 16:30N 25°48' W 080°15'0 0.0
2018-Aug-07 16:00N 25°48' W 080°15'0 0.0
2018-Aug-07 15:30N 25°48' W 080°15'0 0.0
2018-Aug-07 15:01N 25°48' W 080°15'0 0.0
2018-Aug-07 14:30N 25°48' W 080°15'0 0.0
2018-Aug-07 14:00N 25°48' W 080°15'0 0.0
2018-Aug-07 13:30N 25°48' W 080°15'0 0.1
2018-Aug-07 13:00N 25°48' W 080°15'0 0.5
2018-Aug-07 12:30N 25°48' W 080°15'  

Dump ship's entire track history